Time;durP1;ratioP1;P1;durP2;ratioP2;P2;SDS_P1;SDS_P2;PMS_P1;PMS_P2;Temp;Humidity;BMP_temperature;BMP_pressure;BME280_temperature;BME280_humidity;BME280_pressure;Samples;Min_cycle;Max_cycle;Signal;HPM_P1;HPM_P2
2023/01/01 00:01:56;;;;;;;4.13;2.20;;;;;;;;;;5014604;28;20097;-70
2023/01/01 00:04:21;;;;;;;5.13;2.63;;;;;;;;;;5014406;28;20442;-69
2023/01/01 00:06:47;;;;;;;4.72;2.20;;;;;;;;;;5014606;28;20463;-70
2023/01/01 00:11:56;;;;;;;4.07;2.13;;;;;;;;;;5014580;28;20061;-69
2023/01/01 00:14:22;;;;;;;4.22;2.00;;;;;;;;;;5014453;28;20479;-71
2023/01/01 00:16:48;;;;;;;3.38;2.20;;;;;;;;;;5014535;28;20026;-70
2023/01/01 00:19:13;;;;;;;6.03;2.75;;;;;;;;;;5013868;28;20085;-71
2023/01/01 00:21:38;;;;;;;4.75;2.40;;;;;;;;;;5014365;28;20037;-70
2023/01/01 00:24:05;;;;;;;4.10;2.03;;;;;;;;;;5014074;28;20041;-70
2023/01/01 00:26:31;;;;;;;4.72;1.95;;;;;;;;;;5014133;28;20029;-70
2023/01/01 00:28:56;;;;;;;5.40;2.22;;;;;;;;;;5014025;28;20083;-70
2023/01/01 00:31:22;;;;;;;3.10;1.70;;;;;;;;;;5014136;28;20426;-70
2023/01/01 00:33:53;;;;;;;6.85;2.25;;;;;;;;;;5013789;28;20037;-69
2023/01/01 00:36:19;;;;;;;3.63;1.92;;;;;;;;;;5014082;28;20133;-70
2023/01/01 00:38:45;;;;;;;5.10;1.75;;;;;;;;;;5013924;28;20037;-69
2023/01/01 00:41:12;;;;;;;3.97;1.80;;;;;;;;;;5013892;28;20026;-70
2023/01/01 00:43:38;;;;;;;6.28;2.05;;;;;;;;;;5013713;28;20049;-69
2023/01/01 00:46:04;;;;;;;5.97;2.33;;;;;;;;;;5013994;28;20044;-70
2023/01/01 00:48:29;;;;;;;6.55;2.40;;;;;;;;;;5013685;28;20034;-70
2023/01/01 00:50:55;;;;;;;7.72;1.85;;;;;;;;;;5013832;28;20534;-69
2023/01/01 00:53:21;;;;;;;4.57;1.90;;;;;;;;;;5013630;28;20105;-69
2023/01/01 00:55:48;;;;;;;4.07;2.00;;;;;;;;;;5013649;28;20033;-68
2023/01/01 00:58:15;;;;;;;4.82;1.77;;;;;;;;;;5013702;28;20061;-69
2023/01/01 01:00:41;;;;;;;3.47;1.88;;;;;;;;;;5013628;28;20026;-67
2023/01/01 01:03:07;;;;;;;5.78;2.05;;;;;;;;;;5013240;28;20483;-68
2023/01/01 01:05:35;;;;;;;5.95;2.10;;;;;;;;;;5013527;28;20062;-67
2023/01/01 01:08:01;;;;;;;8.18;2.35;;;;;;;;;;5013374;28;20052;-68
2023/01/01 01:10:26;;;;;;;6.60;2.20;;;;;;;;;;5013356;28;20029;-68
2023/01/01 01:12:52;;;;;;;8.68;2.78;;;;;;;;;;5013572;28;20026;-70
2023/01/01 01:15:18;;;;;;;6.35;2.25;;;;;;;;;;5013238;28;20030;-68
2023/01/01 01:17:44;;;;;;;5.95;2.53;;;;;;;;;;5013114;28;20037;-68
2023/01/01 01:20:11;;;;;;;8.88;2.85;;;;;;;;;;5013343;28;20030;-69
2023/01/01 01:22:37;;;;;;;14.02;2.85;;;;;;;;;;5013126;28;20030;-69
2023/01/01 01:25:02;;;;;;;5.82;2.80;;;;;;;;;;5013291;28;20037;-70
2023/01/01 01:27:28;;;;;;;7.03;2.25;;;;;;;;;;5013186;28;20084;-68
2023/01/01 01:29:53;;;;;;;8.43;3.58;;;;;;;;;;5012695;28;20028;-67
2023/01/01 01:32:19;;;;;;;7.00;2.83;;;;;;;;;;5012430;28;20030;-69
2023/01/01 01:34:45;;;;;;;8.50;2.90;;;;;;;;;;5013116;28;20026;-71
2023/01/01 01:37:11;;;;;;;8.63;2.55;;;;;;;;;;5012937;28;20491;-70
2023/01/01 01:39:37;;;;;;;7.72;2.88;;;;;;;;;;5013111;28;20056;-70
2023/01/01 01:42:02;;;;;;;7.38;2.80;;;;;;;;;;5012759;28;20025;-70
2023/01/01 01:44:50;;;;;;;9.43;3.10;;;;;;;;;;5012528;28;20029;-70
2023/01/01 01:47:44;;;;;;;11.35;3.10;;;;;;;;;;5012920;28;20076;-70
2023/01/01 01:50:23;;;;;;;10.00;3.20;;;;;;;;;;5012986;28;20498;-70
2023/01/01 01:53:13;;;;;;;7.25;3.05;;;;;;;;;;5013027;28;20387;-70
2023/01/01 01:55:44;;;;;;;9.20;3.17;;;;;;;;;;5012658;28;20117;-69
2023/01/01 01:58:11;;;;;;;8.35;3.08;;;;;;;;;;5012725;28;20463;-70
2023/01/01 02:00:37;;;;;;;7.95;3.30;;;;;;;;;;5012875;28;20321;-70
2023/01/01 02:03:13;;;;;;;9.82;2.88;;;;;;;;;;5012720;28;20029;-70
2023/01/01 02:05:40;;;;;;;11.63;3.40;;;;;;;;;;5012727;28;20380;-70
2023/01/01 02:08:07;;;;;;;12.02;3.25;;;;;;;;;;5012746;28;20489;-69
2023/01/01 02:10:33;;;;;;;8.48;3.20;;;;;;;;;;5012640;28;20029;-70
2023/01/01 02:12:59;;;;;;;11.48;3.05;;;;;;;;;;5012780;28;20482;-70
2023/01/01 02:15:29;;;;;;;6.68;3.17;;;;;;;;;;5012484;28;20186;-70
2023/01/01 02:18:00;;;;;;;9.30;3.08;;;;;;;;;;5012629;28;20025;-70
2023/01/01 02:20:37;;;;;;;7.00;3.25;;;;;;;;;;5011890;28;20030;-68
2023/01/01 02:23:33;;;;;;;8.60;2.92;;;;;;;;;;4992017;28;20431;-71
2023/01/01 02:26:05;;;;;;;11.95;2.75;;;;;;;;;;4974170;28;20077;-70
2023/01/01 02:28:48;;;;;;;5.25;2.67;;;;;;;;;;4995214;28;20044;-70
2023/01/01 02:31:20;;;;;;;8.48;2.80;;;;;;;;;;5012310;28;20123;-69
2023/01/01 02:33:48;;;;;;;6.57;2.80;;;;;;;;;;5012412;28;20068;-69
2023/01/01 02:36:14;;;;;;;9.40;3.42;;;;;;;;;;5012410;28;20030;-70
2023/01/01 02:38:45;;;;;;;7.15;3.05;;;;;;;;;;5012271;28;20423;-69
2023/01/01 02:41:14;;;;;;;7.45;2.85;;;;;;;;;;5012328;28;20040;-70
2023/01/01 02:43:41;;;;;;;9.27;2.78;;;;;;;;;;5010426;28;20043;-69
2023/01/01 02:46:08;;;;;;;7.15;2.67;;;;;;;;;;4989412;28;20041;-70
2023/01/01 02:48:46;;;;;;;8.70;2.83;;;;;;;;;;4993298;28;20019;-70
2023/01/01 02:51:14;;;;;;;5.18;2.40;;;;;;;;;;4990271;28;20105;-70
2023/01/01 02:54:05;;;;;;;8.32;2.70;;;;;;;;;;4992241;28;20093;-70
2023/01/01 02:56:33;;;;;;;7.00;2.80;;;;;;;;;;4952485;28;20043;-70
2023/01/01 03:02:30;;;;;;;9.50;2.53;;;;;;;;;;4953336;28;20547;-71
2023/01/01 03:05:17;;;;;;;10.43;2.50;;;;;;;;;;4953693;28;20539;-70
2023/01/01 03:07:58;;;;;;;9.90;2.67;;;;;;;;;;4952951;28;20035;-70
2023/01/01 03:10:36;;;;;;;;;;;;;;;;;;4947686;28;20027;-71
2023/01/01 03:13:01;;;;;;;5.80;2.70;;;;;;;;;;4952917;28;19918;-69
2023/01/01 03:15:28;;;;;;;6.45;2.42;;;;;;;;;;4950116;28;20584;-70
2023/01/01 03:18:12;;;;;;;10.73;3.08;;;;;;;;;;4951318;28;20031;-69
2023/01/01 03:20:42;;;;;;;6.45;2.72;;;;;;;;;;4957539;28;20386;-70
2023/01/01 03:23:14;;;;;;;8.10;2.78;;;;;;;;;;4953876;28;20046;-70
2023/01/01 03:25:47;;;;;;;6.70;2.50;;;;;;;;;;4952789;29;20031;-70
2023/01/01 03:28:20;;;;;;;9.45;2.70;;;;;;;;;;4946326;28;20062;-70
2023/01/01 03:30:48;;;;;;;8.45;2.55;;;;;;;;;;4954942;28;20393;-72
2023/01/01 03:33:21;;;;;;;9.43;2.65;;;;;;;;;;4969031;28;20065;-70
2023/01/01 03:35:58;;;;;;;6.65;2.10;;;;;;;;;;4995911;28;20023;-69
2023/01/01 03:38:36;;;;;;;8.77;2.70;;;;;;;;;;4994695;28;20023;-71
2023/01/01 03:41:20;;;;;;;8.10;2.53;;;;;;;;;;4996051;28;20033;-70
2023/01/01 03:43:51;;;;;;;11.95;3.20;;;;;;;;;;4994421;28;20065;-70
2023/01/01 03:46:22;;;;;;;9.68;2.83;;;;;;;;;;4993702;28;20027;-70
2023/01/01 03:48:56;;;;;;;11.07;2.92;;;;;;;;;;4996443;28;20030;-69
2023/01/01 03:51:26;;;;;;;6.18;2.53;;;;;;;;;;4993978;28;20018;-70
2023/01/01 03:53:53;;;;;;;10.00;2.53;;;;;;;;;;4994980;28;20022;-70
2023/01/01 03:56:47;;;;;;;9.48;2.72;;;;;;;;;;4995339;28;20046;-70
2023/01/01 03:59:35;;;;;;;7.05;2.55;;;;;;;;;;4998261;28;20034;-69
2023/01/01 04:02:06;;;;;;;7.10;2.50;;;;;;;;;;5014621;28;20501;-70
2023/01/01 04:04:33;;;;;;;7.63;2.70;;;;;;;;;;5007648;28;20341;-70
2023/01/01 04:06:58;;;;;;;7.75;2.70;;;;;;;;;;4994767;28;20030;-69
2023/01/01 04:09:30;;;;;;;8.45;2.58;;;;;;;;;;4999911;28;20072;-70
2023/01/01 04:12:00;;;;;;;6.97;2.20;;;;;;;;;;5014505;28;20030;-70
2023/01/01 04:14:32;;;;;;;10.18;3.03;;;;;;;;;;5005532;28;20034;-70
2023/01/01 04:16:59;;;;;;;5.75;2.65;;;;;;;;;;5007732;28;20103;-69
2023/01/01 04:19:24;;;;;;;9.23;2.55;;;;;;;;;;4997639;28;20030;-70
2023/01/01 04:21:50;;;;;;;8.35;2.55;;;;;;;;;;5009930;28;20030;-69
2023/01/01 04:24:16;;;;;;;11.15;3.15;;;;;;;;;;5001664;28;20116;-70
2023/01/01 04:26:41;;;;;;;10.05;2.88;;;;;;;;;;5001631;28;20038;-70
2023/01/01 04:29:07;;;;;;;6.25;2.28;;;;;;;;;;5008713;28;20030;-70
2023/01/01 04:31:34;;;;;;;8.93;3.38;;;;;;;;;;5012149;28;20032;-70
2023/01/01 04:33:59;;;;;;;5.32;2.50;;;;;;;;;;4999447;28;20108;-70
2023/01/01 04:36:25;;;;;;;9.07;2.83;;;;;;;;;;5005003;28;20065;-70
2023/01/01 04:38:50;;;;;;;8.65;2.72;;;;;;;;;;5006198;28;20460;-69
2023/01/01 04:41:15;;;;;;;9.75;2.80;;;;;;;;;;4998165;28;20464;-70
2023/01/01 04:43:43;;;;;;;12.55;2.80;;;;;;;;;;5010045;28;20109;-69
2023/01/01 04:46:08;;;;;;;9.00;2.80;;;;;;;;;;5000534;28;20026;-70
2023/01/01 04:48:34;;;;;;;9.10;2.83;;;;;;;;;;5003761;28;20019;-70
2023/01/01 04:51:03;;;;;;;10.95;2.92;;;;;;;;;;5007475;28;20025;-70
2023/01/01 04:53:31;;;;;;;7.10;2.85;;;;;;;;;;4997000;28;20026;-69
2023/01/01 04:56:12;;;;;;;10.85;3.08;;;;;;;;;;5008576;28;20022;-69
2023/01/01 04:58:38;;;;;;;;;;;;;;;;;;5004728;28;20026;-69
2023/01/01 05:01:04;;;;;;;8.30;2.97;;;;;;;;;;4999547;28;19915;-70
2023/01/01 05:03:30;;;;;;;8.65;3.00;;;;;;;;;;5009820;28;20044;-70
2023/01/01 05:06:08;;;;;;;9.38;3.33;;;;;;;;;;4997737;28;20097;-70
2023/01/01 05:08:36;;;;;;;7.40;3.05;;;;;;;;;;5003159;28;20097;-70
2023/01/01 05:11:04;;;;;;;7.45;2.85;;;;;;;;;;5007434;28;20034;-70
2023/01/01 05:13:29;;;;;;;7.47;3.10;;;;;;;;;;4996749;28;20022;-70
2023/01/01 05:15:55;;;;;;;6.75;2.67;;;;;;;;;;5008483;28;20026;-69
2023/01/01 05:18:21;;;;;;;10.65;3.50;;;;;;;;;;5001760;28;20485;-69
2023/01/01 05:20:46;;;;;;;11.77;4.28;;;;;;;;;;5001274;28;20077;-69
2023/01/01 05:23:12;;;;;;;9.20;2.78;;;;;;;;;;5008188;28;20040;-69
2023/01/01 05:25:37;;;;;;;9.05;3.08;;;;;;;;;;4996703;28;20082;-70
2023/01/01 05:28:02;;;;;;;6.03;3.17;;;;;;;;;;5007263;28;20456;-70
2023/01/01 05:30:28;;;;;;;10.10;2.70;;;;;;;;;;5011849;28;20037;-69
2023/01/01 05:32:53;;;;;;;9.75;3.03;;;;;;;;;;5000306;28;20031;-69
2023/01/01 05:35:19;;;;;;;9.32;2.92;;;;;;;;;;5009388;28;20029;-70
2023/01/01 05:37:44;;;;;;;15.63;3.25;;;;;;;;;;4996280;28;20014;-70
2023/01/01 05:40:10;;;;;;;7.30;2.80;;;;;;;;;;5006221;28;20035;-69
2023/01/01 05:42:35;;;;;;;8.23;2.83;;;;;;;;;;5003102;28;20042;-69
2023/01/01 05:45:02;;;;;;;10.07;3.00;;;;;;;;;;4998890;28;20513;-70
2023/01/01 05:47:28;;;;;;;11.52;2.70;;;;;;;;;;5010477;28;20026;-69
2023/01/01 05:49:53;;;;;;;10.88;3.13;;;;;;;;;;5012983;28;20093;-70
2023/01/01 05:52:18;;;;;;;8.73;3.10;;;;;;;;;;4993396;28;20041;-69
2023/01/01 05:54:44;;;;;;;11.35;3.20;;;;;;;;;;4993208;28;20036;-70
2023/01/01 05:57:09;;;;;;;9.75;3.03;;;;;;;;;;5003545;28;20464;-69
2023/01/01 05:59:35;;;;;;;10.57;3.40;;;;;;;;;;5012800;28;20026;-70
2023/01/01 06:02:00;;;;;;;8.68;3.03;;;;;;;;;;5012727;28;20464;-70
2023/01/01 06:04:25;;;;;;;11.10;3.00;;;;;;;;;;4993699;28;20027;-69
2023/01/01 06:06:51;;;;;;;6.68;3.13;;;;;;;;;;4993044;28;20030;-69
2023/01/01 06:09:16;;;;;;;11.50;3.38;;;;;;;;;;4995866;28;20037;-69
2023/01/01 06:11:42;;;;;;;10.95;2.97;;;;;;;;;;5012758;28;20018;-70
2023/01/01 06:14:07;;;;;;;17.90;7.05;;;;;;;;;;5009001;28;20452;-70
2023/01/01 06:16:32;;;;;;;17.05;4.28;;;;;;;;;;4999894;28;20026;-70
2023/01/01 06:18:58;;;;;;;8.85;3.25;;;;;;;;;;5005546;28;20030;-69
2023/01/01 06:21:26;;;;;;;15.38;3.50;;;;;;;;;;5010562;28;20060;-69
2023/01/01 06:23:51;;;;;;;9.65;3.33;;;;;;;;;;4998521;28;20038;-70
2023/01/01 06:26:22;;;;;;;12.63;3.17;;;;;;;;;;4999134;28;20030;-70
2023/01/01 06:28:48;;;;;;;6.03;2.72;;;;;;;;;;5015097;28;20034;-69
2023/01/01 06:31:18;;;;;;;9.77;2.70;;;;;;;;;;5016384;28;20148;-69
2023/01/01 06:33:44;;;;;;;6.55;3.10;;;;;;;;;;5016157;28;20026;-70
2023/01/01 06:36:11;;;;;;;5.75;2.38;;;;;;;;;;5016120;28;20534;-69
2023/01/01 06:38:39;;;;;;;10.45;2.60;;;;;;;;;;5010478;28;20461;-70
2023/01/01 06:41:07;;;;;;;10.45;3.15;;;;;;;;;;5005675;28;20105;-69
2023/01/01 06:43:34;;;;;;;7.03;2.65;;;;;;;;;;5002590;28;20048;-70
2023/01/01 06:46:06;;;;;;;11.23;3.22;;;;;;;;;;5012416;28;20048;-68
2023/01/01 06:48:34;;;;;;;9.00;2.92;;;;;;;;;;4996502;28;20038;-70
2023/01/01 06:51:08;;;;;;;6.25;2.80;;;;;;;;;;5009702;28;20522;-69
2023/01/01 06:53:34;;;;;;;9.50;2.47;;;;;;;;;;5016063;28;20109;-70
2023/01/01 06:56:00;;;;;;;9.45;3.03;;;;;;;;;;5011806;28;20050;-69
2023/01/01 06:58:26;;;;;;;10.50;3.70;;;;;;;;;;4996295;28;20463;-70
2023/01/01 07:00:51;;;;;;;8.15;2.90;;;;;;;;;;4996269;28;20360;-68
2023/01/01 07:03:16;;;;;;;9.30;3.30;;;;;;;;;;5004044;28;20372;-70
2023/01/01 07:05:42;;;;;;;8.30;3.20;;;;;;;;;;5015665;28;20029;-69
2023/01/01 07:08:07;;;;;;;9.23;3.72;;;;;;;;;;5009832;28;20049;-69
2023/01/01 07:10:33;;;;;;;7.78;2.60;;;;;;;;;;5004944;28;20030;-70
2023/01/01 07:12:59;;;;;;;9.85;3.05;;;;;;;;;;5003030;28;20034;-70
2023/01/01 07:15:25;;;;;;;11.65;3.30;;;;;;;;;;5011873;28;20034;-70
2023/01/01 07:17:50;;;;;;;12.88;3.35;;;;;;;;;;4995596;28;20076;-69
2023/01/01 07:20:16;;;;;;;6.88;3.00;;;;;;;;;;4999440;28;20022;-70
2023/01/01 07:22:41;;;;;;;10.10;3.00;;;;;;;;;;5015290;28;20025;-70
2023/01/01 07:25:09;;;;;;;8.15;3.25;;;;;;;;;;5002527;28;20532;-70
2023/01/01 07:27:34;;;;;;;7.43;2.90;;;;;;;;;;5008618;28;20058;-70
2023/01/01 07:30:00;;;;;;;6.38;2.30;;;;;;;;;;5014121;28;20057;-69
2023/01/01 07:32:25;;;;;;;11.10;3.30;;;;;;;;;;5015007;28;20490;-70
2023/01/01 07:34:51;;;;;;;11.70;3.58;;;;;;;;;;5015159;28;20104;-70
2023/01/01 07:37:16;;;;;;;15.50;3.75;;;;;;;;;;5011479;28;20515;-70
2023/01/01 07:39:41;;;;;;;6.72;3.50;;;;;;;;;;5002234;28;20104;-69
2023/01/01 07:42:07;;;;;;;11.40;3.20;;;;;;;;;;5004361;28;20035;-70
2023/01/01 07:44:32;;;;;;;8.85;3.10;;;;;;;;;;5008882;28;20025;-70
2023/01/01 07:47:02;;;;;;;7.68;2.92;;;;;;;;;;4997529;28;20073;-69
2023/01/01 07:49:28;;;;;;;5.00;3.13;;;;;;;;;;4997576;28;20447;-69
2023/01/01 07:51:53;;;;;;;7.28;2.80;;;;;;;;;;5014643;28;20113;-70
2023/01/01 07:54:18;;;;;;;6.63;2.97;;;;;;;;;;5014748;28;20109;-69
2023/01/01 07:56:44;;;;;;;8.95;3.00;;;;;;;;;;5003203;28;20034;-69
2023/01/01 07:59:09;;;;;;;6.05;2.90;;;;;;;;;;4995159;28;20384;-70
2023/01/01 08:01:36;;;;;;;9.52;3.22;;;;;;;;;;4999172;28;20022;-69
2023/01/01 08:04:01;;;;;;;8.35;3.20;;;;;;;;;;5014534;28;20073;-68
2023/01/01 08:06:27;;;;;;;8.95;2.80;;;;;;;;;;5014663;28;20032;-69
2023/01/01 08:08:52;;;;;;;7.63;2.83;;;;;;;;;;4998226;28;20066;-70
2023/01/01 08:11:18;;;;;;;11.50;3.17;;;;;;;;;;5010868;28;20029;-70
2023/01/01 08:13:43;;;;;;;9.15;3.22;;;;;;;;;;5001484;28;20029;-69
2023/01/01 08:16:09;;;;;;;7.18;2.60;;;;;;;;;;5003888;28;20034;-69
2023/01/01 08:18:35;;;;;;;9.85;2.60;;;;;;;;;;4999204;28;20577;-69
2023/01/01 08:21:01;;;;;;;5.65;2.45;;;;;;;;;;5014380;28;20037;-68
2023/01/01 08:23:26;;;;;;;7.00;2.70;;;;;;;;;;5014117;28;20436;-69
2023/01/01 08:25:51;;;;;;;9.80;2.70;;;;;;;;;;5003526;28;20053;-69
2023/01/01 08:28:17;;;;;;;9.35;3.08;;;;;;;;;;4995360;28;20034;-69
2023/01/01 08:30:42;;;;;;;8.27;2.53;;;;;;;;;;5000689;28;20132;-69
2023/01/01 08:33:08;;;;;;;6.47;2.88;;;;;;;;;;5007771;28;20022;-69
2023/01/01 08:35:36;;;;;;;7.72;2.50;;;;;;;;;;5014098;28;20064;-70
2023/01/01 08:38:01;;;;;;;8.35;2.20;;;;;;;;;;5014069;28;20109;-69
2023/01/01 08:40:27;;;;;;;7.60;2.78;;;;;;;;;;5013814;28;20105;-69
2023/01/01 08:42:53;;;;;;;5.45;2.60;;;;;;;;;;5013635;28;20129;-69
2023/01/01 08:45:19;;;;;;;6.75;2.25;;;;;;;;;;5013680;28;20507;-69
2023/01/01 08:47:45;;;;;;;6.90;2.25;;;;;;;;;;5013897;28;20030;-68
2023/01/01 08:50:10;;;;;;;5.20;2.83;;;;;;;;;;5013867;28;20022;-69
2023/01/01 08:52:36;;;;;;;7.72;2.30;;;;;;;;;;5013728;28;20064;-69
2023/01/01 08:55:01;;;;;;;4.75;2.40;;;;;;;;;;5013781;28;20100;-70
2023/01/01 08:57:30;;;;;;;9.65;3.40;;;;;;;;;;5013800;28;20030;-68
2023/01/01 08:59:56;;;;;;;5.60;2.55;;;;;;;;;;5011919;28;20116;-69
2023/01/01 09:02:21;;;;;;;9.52;2.70;;;;;;;;;;4993940;28;20109;-69
2023/01/01 09:04:46;;;;;;;10.38;2.95;;;;;;;;;;4993981;28;20029;-70
2023/01/01 09:07:12;;;;;;;5.65;2.20;;;;;;;;;;4993918;28;20042;-70
2023/01/01 09:09:37;;;;;;;6.82;2.70;;;;;;;;;;4993894;28;20022;-69
2023/01/01 09:12:04;;;;;;;8.95;2.30;;;;;;;;;;4993845;28;20026;-69
2023/01/01 09:14:31;;;;;;;7.00;2.80;;;;;;;;;;4993150;28;20022;-68
2023/01/01 09:16:57;;;;;;;6.28;2.42;;;;;;;;;;4993986;28;20030;-69
2023/01/01 09:19:22;;;;;;;6.30;2.65;;;;;;;;;;4993649;28;20380;-69
2023/01/01 09:21:48;;;;;;;6.95;2.45;;;;;;;;;;4993663;28;20030;-69
2023/01/01 09:24:13;;;;;;;5.63;2.72;;;;;;;;;;4993687;28;20066;-69
2023/01/01 09:26:39;;;;;;;6.07;2.50;;;;;;;;;;4993501;28;20452;-69
2023/01/01 09:29:04;;;;;;;7.50;2.50;;;;;;;;;;5000449;28;20026;-69
2023/01/01 09:31:29;;;;;;;4.38;2.60;;;;;;;;;;5008831;28;20038;-69
2023/01/01 09:33:55;;;;;;;4.28;2.20;;;;;;;;;;5012975;28;20105;-69
2023/01/01 09:36:20;;;;;;;10.52;2.53;;;;;;;;;;5007437;28;20046;-68
2023/01/01 09:38:50;;;;;;;6.88;2.40;;;;;;;;;;4993360;28;20415;-69
2023/01/01 09:41:38;;;;;;;8.20;2.47;;;;;;;;;;4992968;28;20054;-69
2023/01/01 09:44:27;;;;;;;7.68;3.38;;;;;;;;;;4992931;28;20053;-68
2023/01/01 09:46:53;;;;;;;9.10;2.67;;;;;;;;;;4992958;28;20085;-69
2023/01/01 09:49:31;;;;;;;5.68;2.50;;;;;;;;;;4993232;28;20034;-69
2023/01/01 09:52:00;;;;;;;7.40;2.53;;;;;;;;;;4992610;28;20473;-69
2023/01/01 09:54:36;;;;;;;5.28;2.55;;;;;;;;;;4993147;28;20139;-68
2023/01/01 09:57:07;;;;;;;4.85;2.28;;;;;;;;;;4993118;28;20065;-68
2023/01/01 09:59:33;;;;;;;9.38;2.45;;;;;;;;;;4992810;28;20026;-69
2023/01/01 10:02:31;;;;;;;4.97;2.35;;;;;;;;;;4993337;28;20031;-69
2023/01/01 10:05:18;;;;;;;5.57;2.30;;;;;;;;;;4993309;28;20034;-69
2023/01/01 10:08:05;;;;;;;4.82;2.05;;;;;;;;;;4993111;28;20077;-69
2023/01/01 10:10:50;;;;;;;6.05;2.80;;;;;;;;;;4993027;28;20022;-69
2023/01/01 10:13:38;;;;;;;6.32;2.30;;;;;;;;;;4992738;28;20033;-69
2023/01/01 10:16:28;;;;;;;9.93;2.33;;;;;;;;;;4992815;28;20035;-70
2023/01/01 10:18:58;;;;;;;4.82;2.47;;;;;;;;;;4993105;28;20113;-69
2023/01/01 10:21:29;;;;;;;4.90;2.38;;;;;;;;;;4993000;28;20030;-68
2023/01/01 10:24:03;;;;;;;8.13;2.33;;;;;;;;;;4992577;28;20109;-69
2023/01/01 10:26:31;;;;;;;10.70;2.70;;;;;;;;;;4992731;28;20030;-70
2023/01/01 10:29:03;;;;;;;5.78;2.67;;;;;;;;;;4999051;28;20034;-69
2023/01/01 10:31:33;;;;;;;8.95;2.30;;;;;;;;;;5012551;28;20030;-70
2023/01/01 10:34:21;;;;;;;9.32;2.47;;;;;;;;;;5012404;28;20096;-70
2023/01/01 10:36:48;;;;;;;5.50;1.98;;;;;;;;;;5012459;28;20490;-69
2023/01/01 10:39:15;;;;;;;5.88;2.30;;;;;;;;;;5012299;28;20038;-69
2023/01/01 10:41:42;;;;;;;7.28;2.22;;;;;;;;;;5012078;28;20430;-68
2023/01/01 10:44:08;;;;;;;6.35;2.72;;;;;;;;;;5012202;28;20077;-70
2023/01/01 10:46:36;;;;;;;6.57;2.50;;;;;;;;;;5012294;28;20101;-70
2023/01/01 10:49:12;;;;;;;6.40;2.40;;;;;;;;;;5012374;28;20050;-70
2023/01/01 10:51:49;;;;;;;5.03;2.20;;;;;;;;;;5012102;28;20030;-69
2023/01/01 10:54:43;;;;;;;6.03;2.55;;;;;;;;;;5011997;28;20045;-70
2023/01/01 10:57:28;;;;;;;5.45;2.45;;;;;;;;;;5010051;28;20042;-69
2023/01/01 10:59:53;;;;;;;7.30;2.60;;;;;;;;;;5012359;28;20060;-70
2023/01/01 11:02:23;;;;;;;7.68;2.55;;;;;;;;;;5012301;28;20049;-69
2023/01/01 11:04:50;;;;;;;5.85;2.58;;;;;;;;;;5015413;28;20092;-70
2023/01/01 11:07:35;;;;;;;5.15;2.47;;;;;;;;;;5015694;28;20026;-69
2023/01/01 11:10:05;;;;;;;7.55;2.45;;;;;;;;;;5015390;28;20084;-70
2023/01/01 11:12:34;;;;;;;6.03;2.50;;;;;;;;;;5015363;28;20053;-69
2023/01/01 11:15:00;;;;;;;4.50;2.28;;;;;;;;;;5015649;28;20084;-69
2023/01/01 11:17:32;;;;;;;6.07;2.60;;;;;;;;;;5015354;28;20533;-70
2023/01/01 11:19:59;;;;;;;4.32;2.42;;;;;;;;;;5002970;28;20034;-69
2023/01/01 11:22:41;;;;;;;8.85;2.90;;;;;;;;;;5005777;28;20475;-70
2023/01/01 11:25:27;;;;;;;8.15;2.78;;;;;;;;;;4994402;28;20381;-70
2023/01/01 11:28:15;;;;;;;6.30;2.50;;;;;;;;;;4988193;28;20026;-69
2023/01/01 11:30:57;;;;;;;8.18;2.40;;;;;;;;;;4988252;28;20070;-69
2023/01/01 11:33:23;;;;;;;7.07;2.42;;;;;;;;;;4988851;28;20081;-70
2023/01/01 11:35:52;;;;;;;6.72;2.80;;;;;;;;;;4988858;28;20026;-69
2023/01/01 11:38:19;;;;;;;6.97;2.70;;;;;;;;;;4989903;28;20499;-69
2023/01/01 11:40:48;;;;;;;7.35;2.47;;;;;;;;;;4988737;28;20042;-69
2023/01/01 11:43:24;;;;;;;7.40;2.83;;;;;;;;;;4995289;28;20046;-69
2023/01/01 11:45:51;;;;;;;5.75;2.63;;;;;;;;;;5001096;28;20021;-69
2023/01/01 11:48:29;;;;;;;6.53;2.75;;;;;;;;;;5008131;28;20113;-69
2023/01/01 11:50:57;;;;;;;11.07;2.67;;;;;;;;;;5011954;28;20384;-69
2023/01/01 11:53:23;;;;;;;5.65;2.53;;;;;;;;;;5000550;28;20467;-69
2023/01/01 11:56:02;;;;;;;6.15;2.53;;;;;;;;;;5013740;28;20036;-69
2023/01/01 11:58:51;;;;;;;5.72;2.58;;;;;;;;;;5012045;28;20034;-68
2023/01/01 12:01:32;;;;;;;4.32;2.47;;;;;;;;;;4995958;28;20030;-70
2023/01/01 12:04:05;;;;;;;4.55;2.58;;;;;;;;;;4997079;28;20495;-70
2023/01/01 12:07:08;;;;;;;8.27;2.80;;;;;;;;;;5014544;28;20030;-70
2023/01/01 12:09:45;;;;;;;5.43;2.70;;;;;;;;;;5014322;28;20038;-69
2023/01/01 12:12:17;;;;;;;6.88;2.42;;;;;;;;;;5014564;28;20026;-69
2023/01/01 12:14:54;;;;;;;7.13;3.00;;;;;;;;;;5013984;28;20427;-69
2023/01/01 12:17:26;;;;;;;12.15;3.00;;;;;;;;;;5014497;28;20438;-68
2023/01/01 12:20:05;;;;;;;8.70;3.70;;;;;;;;;;5014334;28;20029;-69
2023/01/01 12:22:31;;;;;;;5.43;2.72;;;;;;;;;;4997090;28;20026;-69
2023/01/01 12:24:57;;;;;;;5.85;2.88;;;;;;;;;;4993330;28;20085;-67
2023/01/01 12:27:41;;;;;;;7.63;2.58;;;;;;;;;;4993381;28;20034;-68
2023/01/01 12:30:21;;;;;;;6.00;2.15;;;;;;;;;;4992843;28;20045;-69
2023/01/01 12:33:07;;;;;;;5.93;2.58;;;;;;;;;;4993508;28;20109;-68
2023/01/01 12:35:42;;;;;;;7.72;3.03;;;;;;;;;;4994428;28;20070;-68
2023/01/01 12:38:18;;;;;;;8.60;2.45;;;;;;;;;;4994184;28;20022;-69
2023/01/01 12:41:12;;;;;;;4.93;2.53;;;;;;;;;;4994252;28;20027;-68
2023/01/01 12:43:51;;;;;;;5.35;2.47;;;;;;;;;;4993916;28;20488;-68
2023/01/01 12:46:22;;;;;;;7.68;2.45;;;;;;;;;;4994330;28;20030;-68
2023/01/01 12:48:57;;;;;;;5.10;2.65;;;;;;;;;;4993911;28;20037;-69
2023/01/01 12:51:51;;;;;;;4.82;2.40;;;;;;;;;;4994030;28;20370;-69
2023/01/01 12:54:31;;;;;;;10.13;2.75;;;;;;;;;;4992717;28;20049;-70
2023/01/01 12:57:21;;;;;;;4.25;2.13;;;;;;;;;;4992724;28;20026;-69
2023/01/01 12:59:48;;;;;;;;;;;;;;;;;;4994267;28;20030;-69
2023/01/01 13:02:27;;;;;;;6.97;2.50;;;;;;;;;;4993510;28;20379;-70
2023/01/01 13:04:58;;;;;;;5.05;2.50;;;;;;;;;;4993564;28;20132;-70
2023/01/01 13:07:33;;;;;;;6.30;2.28;;;;;;;;;;4993605;28;20022;-69
2023/01/01 13:10:11;;;;;;;5.07;2.40;;;;;;;;;;4993886;28;20033;-70
2023/01/01 13:12:37;;;;;;;8.85;2.20;;;;;;;;;;4992593;28;20519;-70
2023/01/01 13:15:38;;;;;;;5.43;2.03;;;;;;;;;;4993717;28;20030;-70
2023/01/01 13:18:07;;;;;;;5.93;2.70;;;;;;;;;;4994272;28;20026;-70
2023/01/01 13:20:40;;;;;;;6.53;2.13;;;;;;;;;;4992996;28;20088;-69
2023/01/01 13:23:25;;;;;;;5.72;2.60;;;;;;;;;;4993509;28;20026;-67
2023/01/01 13:26:16;;;;;;;7.18;2.25;;;;;;;;;;4993383;28;20026;-69
2023/01/01 13:28:42;;;;;;;5.95;2.38;;;;;;;;;;4992483;28;20034;-69
2023/01/01 13:31:07;;;;;;;5.85;2.42;;;;;;;;;;4993315;28;20029;-70
2023/01/01 13:33:35;;;;;;;6.10;2.10;;;;;;;;;;4993484;28;20105;-69
2023/01/01 13:36:10;;;;;;;6.88;2.17;;;;;;;;;;4993059;28;20095;-70
2023/01/01 13:38:50;;;;;;;3.67;1.80;;;;;;;;;;4993276;28;20022;-70
2023/01/01 13:41:30;;;;;;;5.82;2.40;;;;;;;;;;4993282;28;20476;-70
2023/01/01 13:43:58;;;;;;;7.57;2.53;;;;;;;;;;4993006;28;20053;-70
2023/01/01 13:46:30;;;;;;;7.20;2.50;;;;;;;;;;4993222;28;20268;-69
2023/01/01 13:48:56;;;;;;;5.30;2.17;;;;;;;;;;4993158;28;20484;-70
2023/01/01 13:51:57;;;;;;;7.13;2.30;;;;;;;;;;4991442;28;20401;-70
2023/01/01 13:54:57;;;;;;;5.60;2.17;;;;;;;;;;4993377;28;20022;-70
2023/01/01 13:57:22;;;;;;;8.05;2.40;;;;;;;;;;4993224;28;20081;-70
2023/01/01 13:59:54;;;;;;;4.57;2.38;;;;;;;;;;4993109;28;20058;-70
2023/01/01 14:02:22;;;;;;;4.80;2.15;;;;;;;;;;4992993;28;20435;-67
2023/01/01 14:04:58;;;;;;;4.65;2.33;;;;;;;;;;4991524;28;20073;-67
2023/01/01 14:07:44;;;;;;;6.57;2.22;;;;;;;;;;4991513;28;20042;-68
2023/01/01 14:10:23;;;;;;;4.45;2.10;;;;;;;;;;4989884;28;20062;-68
2023/01/01 14:12:49;;;;;;;6.50;2.38;;;;;;;;;;4989001;28;20506;-68
2023/01/01 14:15:15;;;;;;;5.25;2.25;;;;;;;;;;4991645;28;20030;-68
2023/01/01 14:17:41;;;;;;;7.22;2.28;;;;;;;;;;4991774;28;20372;-70
2023/01/01 14:20:08;;;;;;;6.50;2.90;;;;;;;;;;4991574;28;20054;-70
2023/01/01 14:22:33;;;;;;;5.35;2.40;;;;;;;;;;4991538;28;20026;-69
2023/01/01 14:24:59;;;;;;;4.35;2.22;;;;;;;;;;4991435;28;20077;-70
2023/01/01 14:27:28;;;;;;;5.72;2.22;;;;;;;;;;4989870;28;20030;-68
2023/01/01 14:29:53;;;;;;;6.13;2.42;;;;;;;;;;4991184;28;20368;-69
2023/01/01 14:32:24;;;;;;;4.30;2.42;;;;;;;;;;4991679;28;20026;-68
2023/01/01 14:35:00;;;;;;;6.10;2.47;;;;;;;;;;4988480;28;20357;-70
2023/01/01 14:37:26;;;;;;;7.70;2.30;;;;;;;;;;4993244;28;20027;-70
2023/01/01 14:40:25;;;;;;;8.35;2.55;;;;;;;;;;4996396;28;20476;-69
2023/01/01 14:42:54;;;;;;;6.70;2.60;;;;;;;;;;4995990;28;20092;-67
2023/01/01 14:45:20;;;;;;;7.25;2.60;;;;;;;;;;4996879;28;20038;-67
2023/01/01 14:47:49;;;;;;;5.40;2.47;;;;;;;;;;4996340;28;20026;-70
2023/01/01 14:50:22;;;;;;;7.07;2.28;;;;;;;;;;4997801;28;20093;-68
2023/01/01 14:53:03;;;;;;;5.00;2.00;;;;;;;;;;4996654;28;20069;-69
2023/01/01 14:55:40;;;;;;;4.57;2.10;;;;;;;;;;5004259;28;20058;-69
2023/01/01 14:58:12;;;;;;;4.80;2.05;;;;;;;;;;5000713;28;20081;-68
2023/01/01 15:00:37;;;;;;;5.65;1.85;;;;;;;;;;4995455;28;20027;-69
2023/01/01 15:03:12;;;;;;;5.00;1.75;;;;;;;;;;4995037;28;20033;-68
2023/01/01 15:05:39;;;;;;;4.80;1.80;;;;;;;;;;4995484;28;20404;-68
2023/01/01 15:08:16;;;;;;;3.42;1.60;;;;;;;;;;4995438;28;20080;-68
2023/01/01 15:10:41;;;;;;;3.80;1.65;;;;;;;;;;5008872;28;20087;-69